sensor_id;sensor_type;location;lat;lon;timestamp;P1;durP1;ratioP1;P2;durP2;ratioP2
11344;SDS011;5727;42.600;23.028;2023-05-10T00:02:23;5.97;;;4.83;;
11344;SDS011;5727;42.600;23.028;2023-05-10T00:04:50;5.03;;;4.53;;
11344;SDS011;5727;42.600;23.028;2023-05-10T00:07:17;4.93;;;4.40;;
11344;SDS011;5727;42.600;23.028;2023-05-10T00:09:45;5.60;;;5.10;;
11344;SDS011;5727;42.600;23.028;2023-05-10T00:12:12;5.57;;;5.07;;
11344;SDS011;5727;42.600;23.028;2023-05-10T00:14:39;5.13;;;4.63;;
11344;SDS011;5727;42.600;23.028;2023-05-10T00:17:05;4.83;;;4.43;;
11344;SDS011;5727;42.600;23.028;2023-05-10T00:19:32;4.97;;;4.50;;
11344;SDS011;5727;42.600;23.028;2023-05-10T00:21:59;5.47;;;4.97;;
11344;SDS011;5727;42.600;23.028;2023-05-10T00:24:26;5.97;;;5.37;;
11344;SDS011;5727;42.600;23.028;2023-05-10T00:26:54;6.30;;;5.70;;
11344;SDS011;5727;42.600;23.028;2023-05-10T00:29:21;6.40;;;5.80;;
11344;SDS011;5727;42.600;23.028;2023-05-10T00:31:48;6.80;;;6.10;;
11344;SDS011;5727;42.600;23.028;2023-05-10T00:34:15;6.23;;;5.63;;
11344;SDS011;5727;42.600;23.028;2023-05-10T00:36:41;6.13;;;5.53;;
11344;SDS011;5727;42.600;23.028;2023-05-10T00:39:08;6.53;;;5.70;;
11344;SDS011;5727;42.600;23.028;2023-05-10T00:41:35;6.33;;;5.77;;
11344;SDS011;5727;42.600;23.028;2023-05-10T00:44:03;6.53;;;5.93;;
11344;SDS011;5727;42.600;23.028;2023-05-10T00:46:30;6.87;;;5.40;;
11344;SDS011;5727;42.600;23.028;2023-05-10T00:48:57;5.83;;;5.33;;
11344;SDS011;5727;42.600;23.028;2023-05-10T00:51:24;6.00;;;5.40;;
11344;SDS011;5727;42.600;23.028;2023-05-10T00:53:51;6.23;;;5.63;;
11344;SDS011;5727;42.600;23.028;2023-05-10T00:56:18;5.47;;;4.97;;
11344;SDS011;5727;42.600;23.028;2023-05-10T00:58:45;5.60;;;5.10;;
11344;SDS011;5727;42.600;23.028;2023-05-10T01:01:13;6.53;;;5.30;;
11344;SDS011;5727;42.600;23.028;2023-05-10T01:03:40;5.37;;;4.87;;
11344;SDS011;5727;42.600;23.028;2023-05-10T01:06:07;5.43;;;4.70;;
11344;SDS011;5727;42.600;23.028;2023-05-10T01:08:35;6.53;;;5.60;;
11344;SDS011;5727;42.600;23.028;2023-05-10T01:11:02;5.03;;;4.53;;
11344;SDS011;5727;42.600;23.028;2023-05-10T01:13:30;5.47;;;4.90;;
11344;SDS011;5727;42.600;23.028;2023-05-10T01:15:59;5.80;;;5.20;;
11344;SDS011;5727;42.600;23.028;2023-05-10T01:18:29;6.20;;;5.50;;
11344;SDS011;5727;42.600;23.028;2023-05-10T01:21:01;5.80;;;5.30;;
11344;SDS011;5727;42.600;23.028;2023-05-10T01:23:53;5.63;;;5.03;;
11344;SDS011;5727;42.600;23.028;2023-05-10T01:26:39;5.60;;;5.10;;
11344;SDS011;5727;42.600;23.028;2023-05-10T01:29:32;5.50;;;4.80;;
11344;SDS011;5727;42.600;23.028;2023-05-10T01:32:28;5.77;;;5.17;;
11344;SDS011;5727;42.600;23.028;2023-05-10T01:35:00;5.17;;;4.67;;
11344;SDS011;5727;42.600;23.028;2023-05-10T01:37:36;4.90;;;4.50;;
11344;SDS011;5727;42.600;23.028;2023-05-10T01:40:10;5.27;;;4.77;;
11344;SDS011;5727;42.600;23.028;2023-05-10T01:42:46;5.57;;;4.97;;
11344;SDS011;5727;42.600;23.028;2023-05-10T01:45:18;5.70;;;5.20;;
11344;SDS011;5727;42.600;23.028;2023-05-10T01:47:54;5.70;;;5.10;;
11344;SDS011;5727;42.600;23.028;2023-05-10T01:50:29;5.43;;;5.00;;
11344;SDS011;5727;42.600;23.028;2023-05-10T01:52:58;5.30;;;4.90;;
11344;SDS011;5727;42.600;23.028;2023-05-10T01:55:27;5.37;;;4.87;;
11344;SDS011;5727;42.600;23.028;2023-05-10T01:57:58;5.70;;;5.20;;
11344;SDS011;5727;42.600;23.028;2023-05-10T02:00:29;5.63;;;5.13;;
11344;SDS011;5727;42.600;23.028;2023-05-10T02:02:57;7.03;;;5.43;;
11344;SDS011;5727;42.600;23.028;2023-05-10T02:05:26;5.53;;;5.03;;
11344;SDS011;5727;42.600;23.028;2023-05-10T02:07:56;6.10;;;5.53;;
11344;SDS011;5727;42.600;23.028;2023-05-10T02:10:24;7.17;;;5.97;;
11344;SDS011;5727;42.600;23.028;2023-05-10T02:12:52;7.83;;;7.13;;
11344;SDS011;5727;42.600;23.028;2023-05-10T02:15:22;8.73;;;7.93;;
11344;SDS011;5727;42.600;23.028;2023-05-10T02:17:50;8.43;;;7.63;;
11344;SDS011;5727;42.600;23.028;2023-05-10T02:20:22;8.90;;;7.90;;
11344;SDS011;5727;42.600;23.028;2023-05-10T02:22:50;9.50;;;8.47;;
11344;SDS011;5727;42.600;23.028;2023-05-10T02:25:19;9.27;;;7.90;;
11344;SDS011;5727;42.600;23.028;2023-05-10T02:27:47;7.10;;;6.40;;
11344;SDS011;5727;42.600;23.028;2023-05-10T02:30:15;6.70;;;5.93;;
11344;SDS011;5727;42.600;23.028;2023-05-10T02:32:42;7.00;;;6.30;;
11344;SDS011;5727;42.600;23.028;2023-05-10T02:35:10;7.00;;;6.23;;
11344;SDS011;5727;42.600;23.028;2023-05-10T02:37:38;7.67;;;6.60;;
11344;SDS011;5727;42.600;23.028;2023-05-10T02:40:06;6.77;;;6.03;;
11344;SDS011;5727;42.600;23.028;2023-05-10T02:42:35;6.70;;;6.00;;
11344;SDS011;5727;42.600;23.028;2023-05-10T02:45:05;7.57;;;6.77;;
11344;SDS011;5727;42.600;23.028;2023-05-10T02:47:37;6.17;;;5.67;;
11344;SDS011;5727;42.600;23.028;2023-05-10T02:50:04;6.40;;;5.80;;
11344;SDS011;5727;42.600;23.028;2023-05-10T02:52:35;6.77;;;6.17;;
11344;SDS011;5727;42.600;23.028;2023-05-10T02:55:09;7.83;;;6.80;;
11344;SDS011;5727;42.600;23.028;2023-05-10T02:57:40;7.17;;;6.53;;
11344;SDS011;5727;42.600;23.028;2023-05-10T03:00:09;6.87;;;6.03;;
11344;SDS011;5727;42.600;23.028;2023-05-10T03:02:37;6.80;;;6.10;;
11344;SDS011;5727;42.600;23.028;2023-05-10T03:05:04;7.23;;;6.57;;
11344;SDS011;5727;42.600;23.028;2023-05-10T03:07:31;7.10;;;6.40;;
11344;SDS011;5727;42.600;23.028;2023-05-10T03:10:00;7.93;;;7.23;;
11344;SDS011;5727;42.600;23.028;2023-05-10T03:12:31;8.27;;;7.07;;
11344;SDS011;5727;42.600;23.028;2023-05-10T03:15:11;7.17;;;6.53;;
11344;SDS011;5727;42.600;23.028;2023-05-10T03:17:45;7.83;;;7.07;;
11344;SDS011;5727;42.600;23.028;2023-05-10T03:20:19;8.07;;;7.27;;
11344;SDS011;5727;42.600;23.028;2023-05-10T03:22:50;8.37;;;7.37;;
11344;SDS011;5727;42.600;23.028;2023-05-10T03:25:20;9.77;;;7.70;;
11344;SDS011;5727;42.600;23.028;2023-05-10T03:27:49;7.23;;;6.57;;
11344;SDS011;5727;42.600;23.028;2023-05-10T03:30:16;9.07;;;8.17;;
11344;SDS011;5727;42.600;23.028;2023-05-10T03:32:43;7.57;;;6.87;;
11344;SDS011;5727;42.600;23.028;2023-05-10T03:35:11;8.53;;;7.63;;
11344;SDS011;5727;42.600;23.028;2023-05-10T03:37:39;9.43;;;8.53;;
11344;SDS011;5727;42.600;23.028;2023-05-10T03:40:06;8.63;;;7.73;;
11344;SDS011;5727;42.600;23.028;2023-05-10T03:42:35;8.43;;;7.63;;
11344;SDS011;5727;42.600;23.028;2023-05-10T03:45:02;8.27;;;7.47;;
11344;SDS011;5727;42.600;23.028;2023-05-10T03:47:29;9.50;;;8.50;;
11344;SDS011;5727;42.600;23.028;2023-05-10T03:49:55;9.47;;;8.47;;
11344;SDS011;5727;42.600;23.028;2023-05-10T03:52:22;10.20;;;9.17;;
11344;SDS011;5727;42.600;23.028;2023-05-10T03:54:49;9.60;;;8.70;;
11344;SDS011;5727;42.600;23.028;2023-05-10T03:57:16;10.80;;;8.93;;
11344;SDS011;5727;42.600;23.028;2023-05-10T03:59:44;9.47;;;8.07;;
11344;SDS011;5727;42.600;23.028;2023-05-10T04:02:11;8.90;;;8.03;;
11344;SDS011;5727;42.600;23.028;2023-05-10T04:04:37;8.57;;;7.70;;
11344;SDS011;5727;42.600;23.028;2023-05-10T04:07:04;9.60;;;8.70;;
11344;SDS011;5727;42.600;23.028;2023-05-10T04:09:31;9.57;;;8.67;;
11344;SDS011;5727;42.600;23.028;2023-05-10T04:11:58;9.87;;;8.87;;
11344;SDS011;5727;42.600;23.028;2023-05-10T04:14:25;10.67;;;9.77;;
11344;SDS011;5727;42.600;23.028;2023-05-10T04:16:53;10.13;;;9.13;;
11344;SDS011;5727;42.600;23.028;2023-05-10T04:19:20;10.97;;;9.87;;
11344;SDS011;5727;42.600;23.028;2023-05-10T04:21:47;11.23;;;9.73;;
11344;SDS011;5727;42.600;23.028;2023-05-10T04:24:13;11.20;;;10.10;;
11344;SDS011;5727;42.600;23.028;2023-05-10T04:26:40;12.33;;;11.03;;
11344;SDS011;5727;42.600;23.028;2023-05-10T04:29:07;9.90;;;8.90;;
11344;SDS011;5727;42.600;23.028;2023-05-10T04:31:33;10.37;;;9.37;;
11344;SDS011;5727;42.600;23.028;2023-05-10T04:34:02;10.43;;;9.43;;
11344;SDS011;5727;42.600;23.028;2023-05-10T04:36:29;10.10;;;9.00;;
11344;SDS011;5727;42.600;23.028;2023-05-10T04:38:57;11.47;;;9.53;;
11344;SDS011;5727;42.600;23.028;2023-05-10T04:41:24;9.60;;;8.57;;
11344;SDS011;5727;42.600;23.028;2023-05-10T04:43:51;10.63;;;8.93;;
11344;SDS011;5727;42.600;23.028;2023-05-10T04:46:17;10.20;;;9.13;;
11344;SDS011;5727;42.600;23.028;2023-05-10T04:48:44;10.07;;;9.07;;
11344;SDS011;5727;42.600;23.028;2023-05-10T04:51:12;9.70;;;8.70;;
11344;SDS011;5727;42.600;23.028;2023-05-10T04:53:39;10.03;;;9.03;;
11344;SDS011;5727;42.600;23.028;2023-05-10T04:56:06;10.20;;;9.20;;
11344;SDS011;5727;42.600;23.028;2023-05-10T04:58:33;9.83;;;8.93;;
11344;SDS011;5727;42.600;23.028;2023-05-10T05:01:04;9.33;;;8.43;;
11344;SDS011;5727;42.600;23.028;2023-05-10T05:03:32;9.43;;;8.20;;
11344;SDS011;5727;42.600;23.028;2023-05-10T05:05:58;9.33;;;8.33;;
11344;SDS011;5727;42.600;23.028;2023-05-10T05:08:26;10.10;;;8.70;;
11344;SDS011;5727;42.600;23.028;2023-05-10T05:10:53;9.37;;;8.53;;
11344;SDS011;5727;42.600;23.028;2023-05-10T05:13:20;9.80;;;8.80;;
11344;SDS011;5727;42.600;23.028;2023-05-10T05:15:47;9.33;;;8.43;;
11344;SDS011;5727;42.600;23.028;2023-05-10T05:18:14;9.03;;;8.23;;
11344;SDS011;5727;42.600;23.028;2023-05-10T05:20:40;12.87;;;10.90;;
11344;SDS011;5727;42.600;23.028;2023-05-10T05:23:07;13.70;;;10.73;;
11344;SDS011;5727;42.600;23.028;2023-05-10T05:25:35;11.33;;;10.17;;
11344;SDS011;5727;42.600;23.028;2023-05-10T05:28:02;10.93;;;9.83;;
11344;SDS011;5727;42.600;23.028;2023-05-10T05:30:29;10.50;;;9.40;;
11344;SDS011;5727;42.600;23.028;2023-05-10T05:32:56;12.00;;;9.90;;
11344;SDS011;5727;42.600;23.028;2023-05-10T05:35:22;10.23;;;9.23;;
11344;SDS011;5727;42.600;23.028;2023-05-10T05:37:49;10.80;;;9.70;;
11344;SDS011;5727;42.600;23.028;2023-05-10T05:40:16;10.10;;;8.97;;
11344;SDS011;5727;42.600;23.028;2023-05-10T05:42:44;11.07;;;8.60;;
11344;SDS011;5727;42.600;23.028;2023-05-10T05:45:11;10.03;;;9.13;;
11344;SDS011;5727;42.600;23.028;2023-05-10T05:47:38;10.23;;;8.73;;
11344;SDS011;5727;42.600;23.028;2023-05-10T05:50:05;9.17;;;8.27;;
11344;SDS011;5727;42.600;23.028;2023-05-10T05:52:33;9.10;;;8.03;;
11344;SDS011;5727;42.600;23.028;2023-05-10T05:54:59;10.70;;;8.70;;
11344;SDS011;5727;42.600;23.028;2023-05-10T05:57:26;9.60;;;8.20;;
11344;SDS011;5727;42.600;23.028;2023-05-10T05:59:54;11.30;;;9.00;;
11344;SDS011;5727;42.600;23.028;2023-05-10T06:02:21;9.40;;;8.50;;
11344;SDS011;5727;42.600;23.028;2023-05-10T06:04:47;11.17;;;9.83;;
11344;SDS011;5727;42.600;23.028;2023-05-10T06:07:14;12.43;;;9.60;;
11344;SDS011;5727;42.600;23.028;2023-05-10T06:09:41;11.47;;;8.83;;
11344;SDS011;5727;42.600;23.028;2023-05-10T06:12:08;9.30;;;8.40;;
11344;SDS011;5727;42.600;23.028;2023-05-10T06:14:34;11.60;;;8.97;;
11344;SDS011;5727;42.600;23.028;2023-05-10T06:17:02;9.87;;;8.83;;
11344;SDS011;5727;42.600;23.028;2023-05-10T06:19:30;9.93;;;8.93;;
11344;SDS011;5727;42.600;23.028;2023-05-10T06:21:56;9.57;;;8.67;;
11344;SDS011;5727;42.600;23.028;2023-05-10T06:24:23;11.03;;;9.93;;
11344;SDS011;5727;42.600;23.028;2023-05-10T06:26:50;9.53;;;8.70;;
11344;SDS011;5727;42.600;23.028;2023-05-10T06:29:17;10.07;;;9.03;;
11344;SDS011;5727;42.600;23.028;2023-05-10T06:31:43;10.37;;;9.13;;
11344;SDS011;5727;42.600;23.028;2023-05-10T06:34:12;10.73;;;9.63;;
11344;SDS011;5727;42.600;23.028;2023-05-10T06:36:38;9.40;;;8.40;;
11344;SDS011;5727;42.600;23.028;2023-05-10T06:39:06;9.00;;;8.10;;
11344;SDS011;5727;42.600;23.028;2023-05-10T06:41:33;9.17;;;8.30;;
11344;SDS011;5727;42.600;23.028;2023-05-10T06:43:59;9.70;;;8.80;;
11344;SDS011;5727;42.600;23.028;2023-05-10T06:46:26;9.07;;;8.17;;
11344;SDS011;5727;42.600;23.028;2023-05-10T06:48:53;10.03;;;8.87;;
11344;SDS011;5727;42.600;23.028;2023-05-10T06:51:21;11.47;;;10.27;;
11344;SDS011;5727;42.600;23.028;2023-05-10T06:53:48;10.90;;;9.43;;
11344;SDS011;5727;42.600;23.028;2023-05-10T06:56:14;10.13;;;8.93;;
11344;SDS011;5727;42.600;23.028;2023-05-10T06:58:41;9.87;;;8.87;;
11344;SDS011;5727;42.600;23.028;2023-05-10T07:01:08;10.47;;;9.40;;
11344;SDS011;5727;42.600;23.028;2023-05-10T07:03:35;9.77;;;8.77;;
11344;SDS011;5727;42.600;23.028;2023-05-10T07:06:01;9.90;;;8.73;;
11344;SDS011;5727;42.600;23.028;2023-05-10T07:08:31;9.37;;;8.43;;
11344;SDS011;5727;42.600;23.028;2023-05-10T07:10:59;9.83;;;8.83;;
11344;SDS011;5727;42.600;23.028;2023-05-10T07:13:26;10.13;;;8.80;;
11344;SDS011;5727;42.600;23.028;2023-05-10T07:15:53;10.27;;;8.03;;
11344;SDS011;5727;42.600;23.028;2023-05-10T07:18:19;10.13;;;9.13;;
11344;SDS011;5727;42.600;23.028;2023-05-10T07:20:46;10.00;;;8.90;;
11344;SDS011;5727;42.600;23.028;2023-05-10T07:23:13;9.90;;;8.90;;
11344;SDS011;5727;42.600;23.028;2023-05-10T07:25:41;9.50;;;8.57;;
11344;SDS011;5727;42.600;23.028;2023-05-10T07:28:08;11.93;;;10.67;;
11344;SDS011;5727;42.600;23.028;2023-05-10T07:30:34;12.73;;;11.07;;
11344;SDS011;5727;42.600;23.028;2023-05-10T07:33:01;12.37;;;11.17;;
11344;SDS011;5727;42.600;23.028;2023-05-10T07:35:28;14.07;;;10.77;;
11344;SDS011;5727;42.600;23.028;2023-05-10T07:37:55;11.77;;;10.53;;
11344;SDS011;5727;42.600;23.028;2023-05-10T07:40:21;14.00;;;11.53;;
11344;SDS011;5727;42.600;23.028;2023-05-10T07:42:49;14.57;;;11.70;;
11344;SDS011;5727;42.600;23.028;2023-05-10T07:45:16;13.67;;;12.27;;
11344;SDS011;5727;42.600;23.028;2023-05-10T07:47:43;16.47;;;12.70;;
11344;SDS011;5727;42.600;23.028;2023-05-10T07:50:10;14.03;;;11.57;;
11344;SDS011;5727;42.600;23.028;2023-05-10T07:52:37;13.40;;;11.97;;
11344;SDS011;5727;42.600;23.028;2023-05-10T07:57:51;11.27;;;10.17;;
11344;SDS011;5727;42.600;23.028;2023-05-10T08:00:18;14.53;;;11.07;;
11344;SDS011;5727;42.600;23.028;2023-05-10T08:02:45;15.97;;;12.53;;
11344;SDS011;5727;42.600;23.028;2023-05-10T08:05:12;18.50;;;15.03;;
11344;SDS011;5727;42.600;23.028;2023-05-10T08:07:39;14.47;;;12.97;;
11344;SDS011;5727;42.600;23.028;2023-05-10T08:10:06;19.53;;;11.10;;
11344;SDS011;5727;42.600;23.028;2023-05-10T08:12:34;18.90;;;11.17;;
11344;SDS011;5727;42.600;23.028;2023-05-10T08:15:02;23.43;;;10.87;;
11344;SDS011;5727;42.600;23.028;2023-05-10T08:17:30;25.20;;;13.33;;
11344;SDS011;5727;42.600;23.028;2023-05-10T08:19:56;24.70;;;12.93;;
11344;SDS011;5727;42.600;23.028;2023-05-10T08:22:23;21.57;;;13.10;;
11344;SDS011;5727;42.600;23.028;2023-05-10T08:24:50;24.53;;;13.13;;
11344;SDS011;5727;42.600;23.028;2023-05-10T08:27:16;41.83;;;22.57;;
11344;SDS011;5727;42.600;23.028;2023-05-10T08:29:43;30.80;;;16.23;;
11344;SDS011;5727;42.600;23.028;2023-05-10T08:32:11;16.47;;;13.07;;
11344;SDS011;5727;42.600;23.028;2023-05-10T08:34:38;18.90;;;12.73;;
11344;SDS011;5727;42.600;23.028;2023-05-10T08:37:05;18.13;;;10.50;;
11344;SDS011;5727;42.600;23.028;2023-05-10T08:39:33;19.73;;;11.83;;
11344;SDS011;5727;42.600;23.028;2023-05-10T08:42:01;17.87;;;10.73;;
11344;SDS011;5727;42.600;23.028;2023-05-10T08:44:30;17.50;;;11.40;;
11344;SDS011;5727;42.600;23.028;2023-05-10T08:46:58;16.53;;;9.37;;
11344;SDS011;5727;42.600;23.028;2023-05-10T08:49:29;14.80;;;8.97;;
11344;SDS011;5727;42.600;23.028;2023-05-10T08:51:58;12.57;;;8.87;;
11344;SDS011;5727;42.600;23.028;2023-05-10T08:54:28;8.40;;;7.50;;
11344;SDS011;5727;42.600;23.028;2023-05-10T08:56:56;12.03;;;8.53;;
11344;SDS011;5727;42.600;23.028;2023-05-10T08:59:23;11.63;;;8.73;;
11344;SDS011;5727;42.600;23.028;2023-05-10T09:01:49;14.13;;;9.13;;
11344;SDS011;5727;42.600;23.028;2023-05-10T09:04:18;12.00;;;8.80;;
11344;SDS011;5727;42.600;23.028;2023-05-10T09:06:48;11.43;;;9.10;;
11344;SDS011;5727;42.600;23.028;2023-05-10T09:09:14;12.90;;;8.47;;
11344;SDS011;5727;42.600;23.028;2023-05-10T09:11:42;10.40;;;9.10;;
11344;SDS011;5727;42.600;23.028;2023-05-10T09:14:10;18.97;;;9.43;;
11344;SDS011;5727;42.600;23.028;2023-05-10T09:16:39;10.77;;;9.13;;
11344;SDS011;5727;42.600;23.028;2023-05-10T09:19:07;10.33;;;8.57;;
11344;SDS011;5727;42.600;23.028;2023-05-10T09:21:35;12.53;;;10.07;;
11344;SDS011;5727;42.600;23.028;2023-05-10T09:24:05;15.23;;;10.23;;
11344;SDS011;5727;42.600;23.028;2023-05-10T09:26:32;9.50;;;8.40;;
11344;SDS011;5727;42.600;23.028;2023-05-10T09:29:00;9.10;;;7.77;;
11344;SDS011;5727;42.600;23.028;2023-05-10T09:31:44;9.17;;;8.00;;
11344;SDS011;5727;42.600;23.028;2023-05-10T09:34:15;15.27;;;11.40;;
11344;SDS011;5727;42.600;23.028;2023-05-10T09:36:55;12.13;;;10.83;;
11344;SDS011;5727;42.600;23.028;2023-05-10T09:39:36;13.77;;;11.10;;
11344;SDS011;5727;42.600;23.028;2023-05-10T09:42:04;12.60;;;10.90;;
11344;SDS011;5727;42.600;23.028;2023-05-10T09:44:32;11.83;;;10.63;;
11344;SDS011;5727;42.600;23.028;2023-05-10T09:46:59;11.57;;;9.10;;
11344;SDS011;5727;42.600;23.028;2023-05-10T09:49:26;10.63;;;9.10;;
11344;SDS011;5727;42.600;23.028;2023-05-10T09:51:59;12.13;;;9.50;;
11344;SDS011;5727;42.600;23.028;2023-05-10T09:54:28;10.50;;;8.80;;
11344;SDS011;5727;42.600;23.028;2023-05-10T09:56:56;9.67;;;8.67;;
11344;SDS011;5727;42.600;23.028;2023-05-10T09:59:24;10.73;;;8.40;;
11344;SDS011;5727;42.600;23.028;2023-05-10T10:01:52;13.50;;;9.23;;
11344;SDS011;5727;42.600;23.028;2023-05-10T10:04:21;10.10;;;9.13;;
11344;SDS011;5727;42.600;23.028;2023-05-10T10:06:58;10.73;;;9.43;;
11344;SDS011;5727;42.600;23.028;2023-05-10T10:09:25;13.70;;;9.67;;
11344;SDS011;5727;42.600;23.028;2023-05-10T10:11:53;10.03;;;9.03;;
11344;SDS011;5727;42.600;23.028;2023-05-10T10:14:22;10.77;;;9.67;;
11344;SDS011;5727;42.600;23.028;2023-05-10T10:16:50;10.50;;;8.63;;
11344;SDS011;5727;42.600;23.028;2023-05-10T10:19:17;10.43;;;8.30;;
11344;SDS011;5727;42.600;23.028;2023-05-10T10:21:44;9.87;;;8.87;;
11344;SDS011;5727;42.600;23.028;2023-05-10T10:24:11;9.03;;;8.13;;
11344;SDS011;5727;42.600;23.028;2023-05-10T10:26:38;10.53;;;8.63;;
11344;SDS011;5727;42.600;23.028;2023-05-10T10:29:10;9.93;;;9.03;;
11344;SDS011;5727;42.600;23.028;2023-05-10T10:31:48;11.47;;;10.27;;
11344;SDS011;5727;42.600;23.028;2023-05-10T10:34:25;13.17;;;11.03;;
11344;SDS011;5727;42.600;23.028;2023-05-10T10:36:54;15.73;;;12.33;;
11344;SDS011;5727;42.600;23.028;2023-05-10T10:39:22;13.13;;;11.70;;
11344;SDS011;5727;42.600;23.028;2023-05-10T10:41:50;12.00;;;10.80;;
11344;SDS011;5727;42.600;23.028;2023-05-10T10:44:26;12.10;;;10.90;;
11344;SDS011;5727;42.600;23.028;2023-05-10T10:47:07;14.17;;;12.57;;
11344;SDS011;5727;42.600;23.028;2023-05-10T10:49:50;12.57;;;11.10;;
11344;SDS011;5727;42.600;23.028;2023-05-10T10:52:21;12.33;;;10.67;;
11344;SDS011;5727;42.600;23.028;2023-05-10T10:54:52;11.53;;;10.27;;
11344;SDS011;5727;42.600;23.028;2023-05-10T10:57:23;11.23;;;9.07;;
11344;SDS011;5727;42.600;23.028;2023-05-10T10:59:53;11.17;;;10.03;;
11344;SDS011;5727;42.600;23.028;2023-05-10T11:02:42;13.90;;;11.80;;
11344;SDS011;5727;42.600;23.028;2023-05-10T11:05:33;11.47;;;10.37;;
11344;SDS011;5727;42.600;23.028;2023-05-10T11:08:10;15.30;;;10.93;;
11344;SDS011;5727;42.600;23.028;2023-05-10T11:10:39;12.20;;;10.63;;
11344;SDS011;5727;42.600;23.028;2023-05-10T11:13:07;14.77;;;11.07;;
11344;SDS011;5727;42.600;23.028;2023-05-10T11:15:36;11.63;;;10.53;;
11344;SDS011;5727;42.600;23.028;2023-05-10T11:20:50;13.40;;;11.90;;
11344;SDS011;5727;42.600;23.028;2023-05-10T11:23:18;12.40;;;11.10;;
11344;SDS011;5727;42.600;23.028;2023-05-10T11:25:46;13.57;;;11.77;;
11344;SDS011;5727;42.600;23.028;2023-05-10T11:28:16;12.53;;;10.77;;
11344;SDS011;5727;42.600;23.028;2023-05-10T11:30:44;13.03;;;11.63;;
11344;SDS011;5727;42.600;23.028;2023-05-10T11:33:15;13.37;;;11.70;;
11344;SDS011;5727;42.600;23.028;2023-05-10T11:35:43;14.53;;;11.77;;
11344;SDS011;5727;42.600;23.028;2023-05-10T11:38:10;14.43;;;10.87;;
11344;SDS011;5727;42.600;23.028;2023-05-10T11:40:38;14.80;;;11.27;;
11344;SDS011;5727;42.600;23.028;2023-05-10T11:43:05;15.07;;;11.40;;
11344;SDS011;5727;42.600;23.028;2023-05-10T11:45:32;14.30;;;10.63;;
11344;SDS011;5727;42.600;23.028;2023-05-10T11:48:01;14.77;;;11.60;;
11344;SDS011;5727;42.600;23.028;2023-05-10T11:50:28;14.80;;;11.90;;
11344;SDS011;5727;42.600;23.028;2023-05-10T11:52:56;14.43;;;11.53;;
11344;SDS011;5727;42.600;23.028;2023-05-10T11:55:23;12.93;;;11.10;;
11344;SDS011;5727;42.600;23.028;2023-05-10T11:57:54;12.13;;;9.80;;
11344;SDS011;5727;42.600;23.028;2023-05-10T12:00:21;12.97;;;10.17;;
11344;SDS011;5727;42.600;23.028;2023-05-10T12:02:48;13.20;;;9.77;;
11344;SDS011;5727;42.600;23.028;2023-05-10T12:05:16;12.73;;;9.67;;
11344;SDS011;5727;42.600;23.028;2023-05-10T12:07:43;12.87;;;9.93;;
11344;SDS011;5727;42.600;23.028;2023-05-10T12:10:11;10.90;;;9.80;;
11344;SDS011;5727;42.600;23.028;2023-05-10T12:12:39;12.03;;;8.70;;
11344;SDS011;5727;42.600;23.028;2023-05-10T12:15:11;11.03;;;9.80;;
11344;SDS011;5727;42.600;23.028;2023-05-10T12:17:39;10.43;;;9.43;;
11344;SDS011;5727;42.600;23.028;2023-05-10T12:20:17;10.60;;;9.37;;
11344;SDS011;5727;42.600;23.028;2023-05-10T12:22:46;11.33;;;9.43;;
11344;SDS011;5727;42.600;23.028;2023-05-10T12:25:13;10.83;;;9.73;;
11344;SDS011;5727;42.600;23.028;2023-05-10T12:27:41;10.43;;;9.33;;
11344;SDS011;5727;42.600;23.028;2023-05-10T12:30:13;12.10;;;9.50;;
11344;SDS011;5727;42.600;23.028;2023-05-10T12:32:45;13.60;;;11.07;;
11344;SDS011;5727;42.600;23.028;2023-05-10T12:35:12;12.03;;;10.23;;
11344;SDS011;5727;42.600;23.028;2023-05-10T12:37:41;12.67;;;10.47;;
11344;SDS011;5727;42.600;23.028;2023-05-10T12:40:09;10.63;;;9.63;;
11344;SDS011;5727;42.600;23.028;2023-05-10T12:42:37;11.57;;;10.37;;
11344;SDS011;5727;42.600;23.028;2023-05-10T12:45:05;10.27;;;9.27;;
11344;SDS011;5727;42.600;23.028;2023-05-10T12:47:33;9.97;;;8.97;;
11344;SDS011;5727;42.600;23.028;2023-05-10T12:50:01;10.57;;;9.47;;
11344;SDS011;5727;42.600;23.028;2023-05-10T12:52:28;10.70;;;9.60;;
11344;SDS011;5727;42.600;23.028;2023-05-10T12:54:58;10.60;;;9.60;;
11344;SDS011;5727;42.600;23.028;2023-05-10T12:57:25;11.27;;;9.60;;
11344;SDS011;5727;42.600;23.028;2023-05-10T12:59:52;12.03;;;9.83;;
11344;SDS011;5727;42.600;23.028;2023-05-10T13:02:19;9.77;;;8.87;;
11344;SDS011;5727;42.600;23.028;2023-05-10T13:04:48;9.83;;;8.87;;
11344;SDS011;5727;42.600;23.028;2023-05-10T13:07:17;11.10;;;10.00;;
11344;SDS011;5727;42.600;23.028;2023-05-10T13:09:44;8.70;;;7.87;;
11344;SDS011;5727;42.600;23.028;2023-05-10T13:12:12;11.70;;;9.03;;
11344;SDS011;5727;42.600;23.028;2023-05-10T13:14:38;10.40;;;8.67;;
11344;SDS011;5727;42.600;23.028;2023-05-10T13:17:06;9.50;;;8.50;;
11344;SDS011;5727;42.600;23.028;2023-05-10T13:19:33;9.37;;;8.47;;
11344;SDS011;5727;42.600;23.028;2023-05-10T13:22:00;9.97;;;8.57;;
11344;SDS011;5727;42.600;23.028;2023-05-10T13:24:27;9.33;;;8.40;;
11344;SDS011;5727;42.600;23.028;2023-05-10T13:26:54;10.77;;;9.07;;
11344;SDS011;5727;42.600;23.028;2023-05-10T13:29:22;9.13;;;8.07;;
11344;SDS011;5727;42.600;23.028;2023-05-10T13:31:49;8.73;;;7.93;;
11344;SDS011;5727;42.600;23.028;2023-05-10T13:34:16;9.97;;;7.97;;
11344;SDS011;5727;42.600;23.028;2023-05-10T13:36:45;9.07;;;8.20;;
11344;SDS011;5727;42.600;23.028;2023-05-10T13:39:12;10.17;;;9.17;;
11344;SDS011;5727;42.600;23.028;2023-05-10T13:41:39;10.93;;;8.70;;
11344;SDS011;5727;42.600;23.028;2023-05-10T13:44:06;9.00;;;8.17;;
11344;SDS011;5727;42.600;23.028;2023-05-10T13:46:34;8.60;;;7.80;;
11344;SDS011;5727;42.600;23.028;2023-05-10T13:49:02;9.77;;;8.73;;
11344;SDS011;5727;42.600;23.028;2023-05-10T13:51:29;10.87;;;9.73;;
11344;SDS011;5727;42.600;23.028;2023-05-10T13:53:57;9.67;;;8.67;;
11344;SDS011;5727;42.600;23.028;2023-05-10T13:56:39;11.13;;;10.07;;
11344;SDS011;5727;42.600;23.028;2023-05-10T13:59:09;10.37;;;9.20;;
11344;SDS011;5727;42.600;23.028;2023-05-10T14:01:37;10.53;;;9.53;;
11344;SDS011;5727;42.600;23.028;2023-05-10T14:04:04;10.97;;;9.80;;
11344;SDS011;5727;42.600;23.028;2023-05-10T14:06:31;12.20;;;10.50;;
11344;SDS011;5727;42.600;23.028;2023-05-10T14:08:59;11.50;;;10.30;;
11344;SDS011;5727;42.600;23.028;2023-05-10T14:11:26;11.73;;;10.53;;
11344;SDS011;5727;42.600;23.028;2023-05-10T14:13:52;11.87;;;10.13;;
11344;SDS011;5727;42.600;23.028;2023-05-10T14:16:19;10.63;;;9.40;;
11344;SDS011;5727;42.600;23.028;2023-05-10T14:18:49;10.37;;;9.37;;
11344;SDS011;5727;42.600;23.028;2023-05-10T14:21:15;11.93;;;10.40;;
11344;SDS011;5727;42.600;23.028;2023-05-10T14:23:42;12.00;;;10.63;;
11344;SDS011;5727;42.600;23.028;2023-05-10T14:26:09;18.87;;;11.00;;
11344;SDS011;5727;42.600;23.028;2023-05-10T14:28:36;11.77;;;10.60;;
11344;SDS011;5727;42.600;23.028;2023-05-10T14:31:03;12.83;;;11.03;;
11344;SDS011;5727;42.600;23.028;2023-05-10T14:33:31;12.60;;;10.30;;
11344;SDS011;5727;42.600;23.028;2023-05-10T14:36:00;11.40;;;10.20;;
11344;SDS011;5727;42.600;23.028;2023-05-10T14:38:28;11.17;;;9.97;;
11344;SDS011;5727;42.600;23.028;2023-05-10T14:40:56;11.07;;;10.07;;
11344;SDS011;5727;42.600;23.028;2023-05-10T14:43:23;12.93;;;10.63;;
11344;SDS011;5727;42.600;23.028;2023-05-10T14:45:50;11.80;;;10.60;;
11344;SDS011;5727;42.600;23.028;2023-05-10T14:48:17;14.40;;;11.50;;
11344;SDS011;5727;42.600;23.028;2023-05-10T14:50:44;14.77;;;10.57;;